No particular awareness of the weather is required.    There are no Weather-warnings


Meteo18 Weather Cam more information Meteo18 Weather Cam


Thunder radar more information blitzortung!


Rain radar more information rain snow radar


Visit our other weather sites:

Template documentation
and downloads

And another site



Weather Underground History page Text

Daily Summary for February 15, 2017 Units:  Both    English   Metric
« Previous Day
Next Day »
Daily Weekly Monthly Yearly Custom
  High: Low: Average:
Temperature: TemperatureC °F /  -17.8 °C 6.6 °F /  -14.1 °C 11.1 °F /  -11.6 °C
Dew Point: DewpointC °F /  -17.8 °C 4.4 °F /  -15.3 °C 6.6 °F /  -14.1 °C
Humidity: Humidity % 53 % 74 %
Wind Speed: WindSpeedKMH mph /  0 km/h - 1.6 mph /  2.6 km/h
Wind Gust: WindSpeedGustKMH mph /  0 km/h - -
Wind:- - SSW
Pressure: PressurehPa in /  0 hPa 1030.0 in /  34875.8 hPa -
Precipitation: 0.0 in /  0 mm    
Historical Graphs
 
 
Tabular Data for February 15, 2017
Time Temperature Dew Point Pressure Wind Wind Speed Wind Gust Humidity Rainfall Rate (Hourly)
TemperatureC °F /  -17.8 °C DewpointC °F /  -17.8 °C PressurehPa in /  0 hPa Calm     Humidity % HourlyPrecipMM in /  0 mm
00:02 9.2 °F /  -12.7 °C 5.9 °F /  -14.5 °C 1030.0 in /  34875.8 hPa Calm   6.4 mph /  10.3 km/h 80 % 0.0 in /  0 mm
00:07 9.2 °F /  -12.7 °C 5.9 °F /  -14.5 °C 1030.0 in /  34875.8 hPa Calm   6.4 mph /  10.3 km/h 80 % 0.0 in /  0 mm
00:12 9.2 °F /  -12.7 °C 6.1 °F /  -14.4 °C 1030.0 in /  34875.8 hPa SE 1.6 mph /  2.6 km/h   81 % 0.0 in /  0 mm
00:17 9.4 °F /  -12.6 °C 6.1 °F /  -14.4 °C 1030.4 in /  34889.3 hPa SSE 1.6 mph /  2.6 km/h   80 % 0.0 in /  0 mm
00:22 9.4 °F /  -12.6 °C 6.1 °F /  -14.4 °C 1030.4 in /  34889.3 hPa SSE 1.6 mph /  2.6 km/h 3.2 mph /  5.1 km/h 80 % 0.0 in /  0 mm
00:27 9.4 °F /  -12.6 °C 5.9 °F /  -14.5 °C 1030.4 in /  34889.3 hPa Calm   3.2 mph /  5.1 km/h 79 % 0.0 in /  0 mm
00:32 9.5 °F /  -12.5 °C 6.0 °F /  -14.4 °C 1030.4 in /  34889.3 hPa Calm   4.8 mph /  7.7 km/h 79 % 0.0 in /  0 mm
00:37 9.6 °F /  -12.4 °C 6.1 °F /  -14.4 °C 1030.4 in /  34889.3 hPa Calm   4.8 mph /  7.7 km/h 79 % 0.0 in /  0 mm
00:42 9.6 °F /  -12.4 °C 6.1 °F /  -14.4 °C 1030.4 in /  34889.3 hPa Calm   4.8 mph /  7.7 km/h 79 % 0.0 in /  0 mm
00:47 9.4 °F /  -12.6 °C 6.1 °F /  -14.4 °C 1030.4 in /  34889.3 hPa Calm   4.8 mph /  7.7 km/h 80 % 0.0 in /  0 mm
00:52 9.4 °F /  -12.6 °C 6.1 °F /  -14.4 °C 1030.4 in /  34889.3 hPa Calm     80 % 0.0 in /  0 mm
00:57 9.4 °F /  -12.6 °C 5.9 °F /  -14.5 °C 1030.4 in /  34889.3 hPa Calm     79 % 0.0 in /  0 mm
01:02 9.4 °F /  -12.6 °C 5.9 °F /  -14.5 °C 1030.4 in /  34889.3 hPa Calm   1.6 mph /  2.6 km/h 79 % 0.0 in /  0 mm
01:07 9.3 °F /  -12.6 °C 6.0 °F /  -14.4 °C 1030.4 in /  34889.3 hPa Calm   1.6 mph /  2.6 km/h 80 % 0.0 in /  0 mm
01:12 9.2 °F /  -12.7 °C 5.9 °F /  -14.5 °C 1030.7 in /  34899.5 hPa SE 3.2 mph /  5.1 km/h 3.2 mph /  5.1 km/h 80 % 0.0 in /  0 mm
01:17 9.3 °F /  -12.6 °C 6.0 °F /  -14.4 °C 1030.4 in /  34889.3 hPa Calm   4.8 mph /  7.7 km/h 80 % 0.0 in /  0 mm
01:22 9.3 °F /  -12.6 °C 6.0 °F /  -14.4 °C 1030.4 in /  34889.3 hPa South 1.6 mph /  2.6 km/h 4.8 mph /  7.7 km/h 80 % 0.0 in /  0 mm
01:27 9.3 °F /  -12.6 °C 6.0 °F /  -14.4 °C 1030.4 in /  34889.3 hPa Calm   4.8 mph /  7.7 km/h 80 % 0.0 in /  0 mm
01:37 9.3 °F /  -12.6 °C 6.0 °F /  -14.4 °C 1030.7 in /  34899.5 hPa Calm   3.2 mph /  5.1 km/h 80 % 0.0 in /  0 mm
01:42 9.3 °F /  -12.6 °C 6.0 °F /  -14.4 °C 1030.7 in /  34899.5 hPa ESE 1.6 mph /  2.6 km/h 3.2 mph /  5.1 km/h 80 % 0.0 in /  0 mm
01:47 9.3 °F /  -12.6 °C 5.8 °F /  -14.6 °C 1030.7 in /  34899.5 hPa Calm   3.2 mph /  5.1 km/h 79 % 0.0 in /  0 mm
01:57 9.2 °F /  -12.7 °C 5.7 °F /  -14.6 °C 1030.7 in /  34899.5 hPa Calm   4.8 mph /  7.7 km/h 79 % 0.0 in /  0 mm
02:02 9.2 °F /  -12.7 °C 5.9 °F /  -14.5 °C 1030.7 in /  34899.5 hPa Calm   4.8 mph /  7.7 km/h 80 % 0.0 in /  0 mm
02:12 9.0 °F /  -12.8 °C 5.7 °F /  -14.6 °C 1030.7 in /  34899.5 hPa Calm   4.8 mph /  7.7 km/h 80 % 0.0 in /  0 mm
02:17 8.9 °F /  -12.8 °C 5.6 °F /  -14.7 °C 1030.7 in /  34899.5 hPa Calm   4.8 mph /  7.7 km/h 80 % 0.0 in /  0 mm
02:22 8.9 °F /  -12.8 °C 5.6 °F /  -14.7 °C 1030.7 in /  34899.5 hPa Calm   4.8 mph /  7.7 km/h 80 % 0.0 in /  0 mm
02:32 8.9 °F /  -12.8 °C 5.6 °F /  -14.7 °C 1030.7 in /  34899.5 hPa Calm   4.8 mph /  7.7 km/h 80 % 0.0 in /  0 mm
02:42 8.8 °F /  -12.9 °C 5.5 °F /  -14.7 °C 1030.7 in /  34899.5 hPa SW 1.6 mph /  2.6 km/h 6.4 mph /  10.3 km/h 80 % 0.0 in /  0 mm
02:52 8.4 °F /  -13.1 °C 5.5 °F /  -14.7 °C 1031.0 in /  34909.7 hPa SW 3.2 mph /  5.1 km/h 4.8 mph /  7.7 km/h 82 % 0.0 in /  0 mm
03:02 8.7 °F /  -12.9 °C 5.6 °F /  -14.7 °C 1030.7 in /  34899.5 hPa WSW 3.2 mph /  5.1 km/h 6.4 mph /  10.3 km/h 81 % 0.0 in /  0 mm
03:12 8.9 °F /  -12.8 °C 5.6 °F /  -14.7 °C 1030.7 in /  34899.5 hPa SSE 3.2 mph /  5.1 km/h 8.0 mph /  12.9 km/h 80 % 0.0 in /  0 mm
03:17 9.0 °F /  -12.8 °C 5.7 °F /  -14.6 °C 1030.7 in /  34899.5 hPa Calm   11.3 mph /  18.2 km/h 80 % 0.0 in /  0 mm
03:22 9.1 °F /  -12.7 °C 5.7 °F /  -14.6 °C 1030.7 in /  34899.5 hPa SSE 4.8 mph /  7.7 km/h 11.3 mph /  18.2 km/h 79 % 0.0 in /  0 mm
03:27 8.9 °F /  -12.8 °C 5.6 °F /  -14.7 °C 1031.0 in /  34909.7 hPa Calm   11.3 mph /  18.2 km/h 80 % 0.0 in /  0 mm
03:32 8.8 °F /  -12.9 °C 5.5 °F /  -14.7 °C 1030.7 in /  34899.5 hPa SSW 1.6 mph /  2.6 km/h 9.7 mph /  15.6 km/h 80 % 0.0 in /  0 mm
03:42 8.6 °F /  -13 °C 5.5 °F /  -14.7 °C 1030.7 in /  34899.5 hPa SW 1.6 mph /  2.6 km/h 4.8 mph /  7.7 km/h 81 % 0.0 in /  0 mm
03:52 8.5 °F /  -13.1 °C 5.4 °F /  -14.8 °C 1031.0 in /  34909.7 hPa Calm   3.2 mph /  5.1 km/h 81 % 0.0 in /  0 mm
03:57 8.4 °F /  -13.1 °C 5.3 °F /  -14.8 °C 1031.0 in /  34909.7 hPa Calm   3.2 mph /  5.1 km/h 81 % 0.0 in /  0 mm
04:02 8.3 °F /  -13.2 °C 5.2 °F /  -14.9 °C 1031.0 in /  34909.7 hPa Calm   3.2 mph /  5.1 km/h 81 % 0.0 in /  0 mm
04:12 8.2 °F /  -13.2 °C 5.3 °F /  -14.8 °C 1031.0 in /  34909.7 hPa Calm   1.6 mph /  2.6 km/h 82 % 0.0 in /  0 mm
04:17 8.2 °F /  -13.2 °C 5.3 °F /  -14.8 °C 1031.0 in /  34909.7 hPa Calm   1.6 mph /  2.6 km/h 82 % 0.0 in /  0 mm
04:22 8.3 °F /  -13.2 °C 5.4 °F /  -14.8 °C 1031.0 in /  34909.7 hPa Calm   1.6 mph /  2.6 km/h 82 % 0.0 in /  0 mm
04:27 8.1 °F /  -13.3 °C 5.4 °F /  -14.8 °C 1031.0 in /  34909.7 hPa Calm   1.6 mph /  2.6 km/h 83 % 0.0 in /  0 mm
04:32 7.9 °F /  -13.4 °C 5.4 °F /  -14.8 °C 1031.0 in /  34909.7 hPa Calm     84 % 0.0 in /  0 mm
04:42 8.2 °F /  -13.2 °C 5.5 °F /  -14.7 °C 1031.0 in /  34909.7 hPa Calm   3.2 mph /  5.1 km/h 83 % 0.0 in /  0 mm
04:47 8.2 °F /  -13.2 °C 5.3 °F /  -14.8 °C 1031.0 in /  34909.7 hPa Calm   3.2 mph /  5.1 km/h 82 % 0.0 in /  0 mm
04:52 8.3 °F /  -13.2 °C 5.4 °F /  -14.8 °C 1031.4 in /  34923.2 hPa Calm   3.2 mph /  5.1 km/h 82 % 0.0 in /  0 mm
04:57 8.3 °F /  -13.2 °C 5.4 °F /  -14.8 °C 1031.4 in /  34923.2 hPa SE 1.6 mph /  2.6 km/h 3.2 mph /  5.1 km/h 82 % 0.0 in /  0 mm
05:02 8.3 °F /  -13.2 °C 5.4 °F /  -14.8 °C 1031.4 in /  34923.2 hPa Calm   3.2 mph /  5.1 km/h 82 % 0.0 in /  0 mm
05:12 8.3 °F /  -13.2 °C 5.4 °F /  -14.8 °C 1031.4 in /  34923.2 hPa Calm   3.2 mph /  5.1 km/h 82 % 0.0 in /  0 mm
05:22 8.2 °F /  -13.2 °C 5.3 °F /  -14.8 °C 1031.4 in /  34923.2 hPa Calm   3.2 mph /  5.1 km/h 82 % 0.0 in /  0 mm
05:32 8.1 °F /  -13.3 °C 5.2 °F /  -14.9 °C 1031.7 in /  34933.4 hPa Calm     82 % 0.0 in /  0 mm
05:42 8.1 °F /  -13.3 °C 5.2 °F /  -14.9 °C 1031.7 in /  34933.4 hPa Calm     82 % 0.0 in /  0 mm
05:52 7.7 °F /  -13.5 °C 5.2 °F /  -14.9 °C 1031.7 in /  34933.4 hPa Calm     84 % 0.0 in /  0 mm
05:57 7.8 °F /  -13.4 °C 5.1 °F /  -14.9 °C 1031.7 in /  34933.4 hPa Calm   4.8 mph /  7.7 km/h 83 % 0.0 in /  0 mm
06:02 7.9 °F /  -13.4 °C 5.2 °F /  -14.9 °C 1031.7 in /  34933.4 hPa Calm   4.8 mph /  7.7 km/h 83 % 0.0 in /  0 mm
06:12 7.9 °F /  -13.4 °C 5.0 °F /  -15 °C 1031.7 in /  34933.4 hPa SSE 1.6 mph /  2.6 km/h 4.8 mph /  7.7 km/h 82 % 0.0 in /  0 mm
06:17 8.1 °F /  -13.3 °C 5.2 °F /  -14.9 °C 1031.7 in /  34933.4 hPa Calm   4.8 mph /  7.7 km/h 82 % 0.0 in /  0 mm
06:22 8.1 °F /  -13.3 °C 5.2 °F /  -14.9 °C 1032.1 in /  34946.9 hPa SSE 1.6 mph /  2.6 km/h 4.8 mph /  7.7 km/h 82 % 0.0 in /  0 mm
06:32 7.9 °F /  -13.4 °C 5.0 °F /  -15 °C 1032.1 in /  34946.9 hPa Calm   4.8 mph /  7.7 km/h 82 % 0.0 in /  0 mm
06:42 8.1 °F /  -13.3 °C 5.2 °F /  -14.9 °C 1032.1 in /  34946.9 hPa SW 1.6 mph /  2.6 km/h 3.2 mph /  5.1 km/h 82 % 0.0 in /  0 mm
06:52 8.1 °F /  -13.3 °C 5.2 °F /  -14.9 °C 1032.1 in /  34946.9 hPa SSE 1.6 mph /  2.6 km/h 3.2 mph /  5.1 km/h 82 % 0.0 in /  0 mm
06:57 7.9 °F /  -13.4 °C 5.0 °F /  -15 °C 1032.1 in /  34946.9 hPa Calm   3.2 mph /  5.1 km/h 82 % 0.0 in /  0 mm
07:02 7.8 °F /  -13.4 °C 5.1 °F /  -14.9 °C 1032.1 in /  34946.9 hPa Calm   3.2 mph /  5.1 km/h 83 % 0.0 in /  0 mm
07:12 7.8 °F /  -13.4 °C 5.1 °F /  -14.9 °C 1032.1 in /  34946.9 hPa Calm   1.6 mph /  2.6 km/h 83 % 0.0 in /  0 mm
07:17 7.8 °F /  -13.4 °C 5.1 °F /  -14.9 °C 1032.1 in /  34946.9 hPa Calm   3.2 mph /  5.1 km/h 83 % 0.0 in /  0 mm
07:22 7.7 °F /  -13.5 °C 5.0 °F /  -15 °C 1032.1 in /  34946.9 hPa Calm   3.2 mph /  5.1 km/h 83 % 0.0 in /  0 mm
07:32 7.6 °F /  -13.6 °C 4.9 °F /  -15.1 °C 1032.1 in /  34946.9 hPa Calm   3.2 mph /  5.1 km/h 83 % 0.0 in /  0 mm
07:42 7.6 °F /  -13.6 °C 5.1 °F /  -14.9 °C 1032.4 in /  34957.1 hPa Calm   1.6 mph /  2.6 km/h 84 % 0.0 in /  0 mm
07:47 7.5 °F /  -13.6 °C 5.0 °F /  -15 °C 1032.4 in /  34957.1 hPa Calm   1.6 mph /  2.6 km/h 84 % 0.0 in /  0 mm
07:52 7.4 °F /  -13.7 °C 4.9 °F /  -15.1 °C 1032.4 in /  34957.1 hPa Calm   1.6 mph /  2.6 km/h 84 % 0.0 in /  0 mm
07:57 7.3 °F /  -13.7 °C 4.8 °F /  -15.1 °C 1032.4 in /  34957.1 hPa Calm     84 % 0.0 in /  0 mm
08:02 7.2 °F /  -13.8 °C 4.7 °F /  -15.2 °C 1032.4 in /  34957.1 hPa Calm     84 % 0.0 in /  0 mm
08:07 7.1 °F /  -13.8 °C 4.7 °F /  -15.2 °C 1032.4 in /  34957.1 hPa Calm     85 % 0.0 in /  0 mm
08:12 7.1 °F /  -13.8 °C 4.9 °F /  -15.1 °C 1032.4 in /  34957.1 hPa Calm     86 % 0.0 in /  0 mm
08:22 7.1 °F /  -13.8 °C 4.7 °F /  -15.2 °C 1032.7 in /  34967.2 hPa Calm     85 % 0.0 in /  0 mm
08:32 7.1 °F /  -13.8 °C 4.9 °F /  -15.1 °C 1033.1 in /  34980.8 hPa Calm     86 % 0.0 in /  0 mm
08:42 6.6 °F /  -14.1 °C 4.4 °F /  -15.3 °C 1033.1 in /  34980.8 hPa Calm     86 % 0.0 in /  0 mm
08:52 7.1 °F /  -13.8 °C 4.9 °F /  -15.1 °C 1033.1 in /  34980.8 hPa Calm     86 % 0.0 in /  0 mm
09:02 7.7 °F /  -13.5 °C 5.2 °F /  -14.9 °C 1033.1 in /  34980.8 hPa Calm     84 % 0.0 in /  0 mm
09:12 8.1 °F /  -13.3 °C 5.4 °F /  -14.8 °C 1033.4 in /  34990.9 hPa Calm     83 % 0.0 in /  0 mm
09:17 8.7 °F /  -12.9 °C 6.1 °F /  -14.4 °C 1033.4 in /  34990.9 hPa Calm     84 % 0.0 in /  0 mm
09:22 9.3 °F /  -12.6 °C 6.0 °F /  -14.4 °C 1033.4 in /  34990.9 hPa Calm     80 % 0.0 in /  0 mm
09:32 9.6 °F /  -12.4 °C 6.0 °F /  -14.4 °C 1033.4 in /  34990.9 hPa Calm     78 % 0.0 in /  0 mm
09:42 9.9 °F /  -12.3 °C 6.1 °F /  -14.4 °C 1033.4 in /  34990.9 hPa Calm     77 % 0.0 in /  0 mm
09:47 10.2 °F /  -12.1 °C 6.2 °F /  -14.3 °C 1033.4 in /  34990.9 hPa Calm     76 % 0.0 in /  0 mm
09:52 9.7 °F /  -12.4 °C 5.7 °F /  -14.6 °C 1033.4 in /  34990.9 hPa SW 1.6 mph /  2.6 km/h   76 % 0.0 in /  0 mm
09:57 9.7 °F /  -12.4 °C 6.0 °F /  -14.4 °C 1033.4 in /  34990.9 hPa Calm   3.2 mph /  5.1 km/h 78 % 0.0 in /  0 mm
10:02 9.9 °F /  -12.3 °C 6.1 °F /  -14.4 °C 1033.4 in /  34990.9 hPa Calm   3.2 mph /  5.1 km/h 77 % 0.0 in /  0 mm
10:12 10.2 °F /  -12.1 °C 6.2 °F /  -14.3 °C 1033.7 in /  35001.1 hPa Calm   3.2 mph /  5.1 km/h 76 % 0.0 in /  0 mm
10:17 10.1 °F /  -12.2 °C 6.3 °F /  -14.3 °C 1033.7 in /  35001.1 hPa SSW 1.6 mph /  2.6 km/h 3.2 mph /  5.1 km/h 77 % 0.0 in /  0 mm
10:22 10.4 °F /  -12 °C 6.7 °F /  -14.1 °C 1033.7 in /  35001.1 hPa SW 1.6 mph /  2.6 km/h 3.2 mph /  5.1 km/h 78 % 0.0 in /  0 mm
10:32 10.5 °F /  -11.9 °C 6.4 °F /  -14.2 °C 1033.7 in /  35001.1 hPa SE 3.2 mph /  5.1 km/h 6.4 mph /  10.3 km/h 76 % 0.0 in /  0 mm
10:42 11.0 °F /  -11.7 °C 6.7 °F /  -14.1 °C 1033.7 in /  35001.1 hPa South 3.2 mph /  5.1 km/h 6.4 mph /  10.3 km/h 75 % 0.0 in /  0 mm
10:47 11.2 °F /  -11.6 °C 6.9 °F /  -13.9 °C 1033.7 in /  35001.1 hPa SSE 1.6 mph /  2.6 km/h 4.8 mph /  7.7 km/h 75 % 0.0 in /  0 mm
10:52 11.4 °F /  -11.4 °C 6.9 °F /  -13.9 °C 1033.7 in /  35001.1 hPa SSW 3.2 mph /  5.1 km/h 4.8 mph /  7.7 km/h 74 % 0.0 in /  0 mm
11:02 11.8 °F /  -11.2 °C 7.5 °F /  -13.6 °C 1033.4 in /  34990.9 hPa SSE 3.2 mph /  5.1 km/h 4.8 mph /  7.7 km/h 75 % 0.0 in /  0 mm
11:12 12.2 °F /  -11 °C 7.3 °F /  -13.7 °C 1033.4 in /  34990.9 hPa ESE 4.8 mph /  7.7 km/h 8.0 mph /  12.9 km/h 72 % 0.0 in /  0 mm
11:22 12.7 °F /  -10.7 °C 7.8 °F /  -13.4 °C 1033.4 in /  34990.9 hPa SE 4.8 mph /  7.7 km/h 6.4 mph /  10.3 km/h 72 % 0.0 in /  0 mm
11:32 13.2 °F /  -10.4 °C 8.1 °F /  -13.3 °C 1033.4 in /  34990.9 hPa SSE 4.8 mph /  7.7 km/h 8.0 mph /  12.9 km/h 71 % 0.0 in /  0 mm
11:42 13.4 °F /  -10.3 °C 8.0 °F /  -13.3 °C 1033.4 in /  34990.9 hPa SE 6.4 mph /  10.3 km/h 8.0 mph /  12.9 km/h 70 % 0.0 in /  0 mm
11:52 13.8 °F /  -10.1 °C 8.4 °F /  -13.1 °C 1033.4 in /  34990.9 hPa SSE 3.2 mph /  5.1 km/h 9.7 mph /  15.6 km/h 70 % 0.0 in /  0 mm
11:57 13.9 °F /  -10.1 °C 8.1 °F /  -13.3 °C 1033.4 in /  34990.9 hPa South 4.8 mph /  7.7 km/h 11.3 mph /  18.2 km/h 68 % 0.0 in /  0 mm
12:02 13.9 °F /  -10.1 °C 7.9 °F /  -13.4 °C 1033.7 in /  35001.1 hPa SSE 8.0 mph /  12.9 km/h 11.3 mph /  18.2 km/h 67 % 0.0 in /  0 mm
12:12 14.1 °F /  -9.9 °C 8.3 °F /  -13.2 °C 1033.4 in /  34990.9 hPa South 9.7 mph /  15.6 km/h 12.9 mph /  20.8 km/h 68 % 0.0 in /  0 mm
12:17 14.1 °F /  -9.9 °C 8.1 °F /  -13.3 °C 1033.4 in /  34990.9 hPa South 6.4 mph /  10.3 km/h 12.9 mph /  20.8 km/h 67 % 0.0 in /  0 mm
12:22 14.1 °F /  -9.9 °C 8.7 °F /  -12.9 °C 1033.4 in /  34990.9 hPa SSE 4.8 mph /  7.7 km/h 12.9 mph /  20.8 km/h 70 % 0.0 in /  0 mm
12:32 14.2 °F /  -9.9 °C 8.8 °F /  -12.9 °C 1033.4 in /  34990.9 hPa South 4.8 mph /  7.7 km/h 14.5 mph /  23.3 km/h 70 % 0.0 in /  0 mm
12:42 14.3 °F /  -9.8 °C 8.3 °F /  -13.2 °C 1033.4 in /  34990.9 hPa SSE 3.2 mph /  5.1 km/h 16.1 mph /  25.9 km/h 67 % 0.0 in /  0 mm
12:52 14.7 °F /  -9.6 °C 8.6 °F /  -13 °C 1033.4 in /  34990.9 hPa South 6.4 mph /  10.3 km/h 12.9 mph /  20.8 km/h 67 % 0.0 in /  0 mm
12:57 14.8 °F /  -9.6 °C 8.7 °F /  -12.9 °C 1033.4 in /  34990.9 hPa SSE 3.2 mph /  5.1 km/h 12.9 mph /  20.8 km/h 67 % 0.0 in /  0 mm
13:02 14.8 °F /  -9.6 °C 8.7 °F /  -12.9 °C 1033.4 in /  34990.9 hPa SSW 6.4 mph /  10.3 km/h 12.9 mph /  20.8 km/h 67 % 0.0 in /  0 mm
13:12 15.0 °F /  -9.4 °C 8.5 °F /  -13.1 °C 1033.1 in /  34980.8 hPa SSW 1.6 mph /  2.6 km/h 14.5 mph /  23.3 km/h 65 % 0.0 in /  0 mm
13:17 15.1 °F /  -9.4 °C 8.6 °F /  -13 °C 1033.1 in /  34980.8 hPa SSW 1.6 mph /  2.6 km/h 14.5 mph /  23.3 km/h 65 % 0.0 in /  0 mm
13:22 15.3 °F /  -9.3 °C 8.5 °F /  -13.1 °C 1033.1 in /  34980.8 hPa SE 4.8 mph /  7.7 km/h 14.5 mph /  23.3 km/h 64 % 0.0 in /  0 mm
13:32 15.3 °F /  -9.3 °C 9.0 °F /  -12.8 °C 1033.1 in /  34980.8 hPa SSW 6.4 mph /  10.3 km/h 9.7 mph /  15.6 km/h 66 % 0.0 in /  0 mm
13:42 15.6 °F /  -9.1 °C 8.6 °F /  -13 °C 1033.1 in /  34980.8 hPa South 3.2 mph /  5.1 km/h 9.7 mph /  15.6 km/h 63 % 0.0 in /  0 mm
13:52 15.8 °F /  -9 °C 9.0 °F /  -12.8 °C 1033.1 in /  34980.8 hPa SSE 4.8 mph /  7.7 km/h 8.0 mph /  12.9 km/h 64 % 0.0 in /  0 mm
14:02 15.6 °F /  -9.1 °C 8.8 °F /  -12.9 °C 1033.1 in /  34980.8 hPa SSW 1.6 mph /  2.6 km/h 8.0 mph /  12.9 km/h 64 % 0.0 in /  0 mm
14:12 15.6 °F /  -9.1 °C 8.8 °F /  -12.9 °C 1033.1 in /  34980.8 hPa SSE 3.2 mph /  5.1 km/h 9.7 mph /  15.6 km/h 64 % 0.0 in /  0 mm
14:17 15.7 °F /  -9.1 °C 8.4 °F /  -13.1 °C 1032.7 in /  34967.2 hPa SE 3.2 mph /  5.1 km/h 9.7 mph /  15.6 km/h 62 % 0.0 in /  0 mm
14:22 15.8 °F /  -9 °C 8.8 °F /  -12.9 °C 1032.7 in /  34967.2 hPa SE 4.8 mph /  7.7 km/h 9.7 mph /  15.6 km/h 63 % 0.0 in /  0 mm
14:32 16.1 °F /  -8.8 °C 9.1 °F /  -12.7 °C 1032.7 in /  34967.2 hPa South 4.8 mph /  7.7 km/h 11.3 mph /  18.2 km/h 63 % 0.0 in /  0 mm
14:37 16.1 °F /  -8.8 °C 8.6 °F /  -13 °C 1032.7 in /  34967.2 hPa SSW 3.2 mph /  5.1 km/h 11.3 mph /  18.2 km/h 61 % 0.0 in /  0 mm
14:42 16.0 °F /  -8.9 °C 9.0 °F /  -12.8 °C 1032.7 in /  34967.2 hPa SE 4.8 mph /  7.7 km/h 11.3 mph /  18.2 km/h 63 % 0.0 in /  0 mm
14:47 16.2 °F /  -8.8 °C 8.9 °F /  -12.8 °C 1032.7 in /  34967.2 hPa SSW 1.6 mph /  2.6 km/h 11.3 mph /  18.2 km/h 62 % 0.0 in /  0 mm
14:52 16.3 °F /  -8.7 °C 8.8 °F /  -12.9 °C 1032.7 in /  34967.2 hPa SSE 3.2 mph /  5.1 km/h 11.3 mph /  18.2 km/h 61 % 0.0 in /  0 mm
15:02 16.4 °F /  -8.7 °C 9.1 °F /  -12.7 °C 1032.7 in /  34967.2 hPa SE 3.2 mph /  5.1 km/h 11.3 mph /  18.2 km/h 62 % 0.0 in /  0 mm
15:07 16.5 °F /  -8.6 °C 9.0 °F /  -12.8 °C 1032.7 in /  34967.2 hPa South 4.8 mph /  7.7 km/h 11.3 mph /  18.2 km/h 61 % 0.0 in /  0 mm
15:12 16.6 °F /  -8.6 °C 8.8 °F /  -12.9 °C 1032.7 in /  34967.2 hPa SW 6.4 mph /  10.3 km/h 11.3 mph /  18.2 km/h 60 % 0.0 in /  0 mm
15:17 16.4 °F /  -8.7 °C 8.6 °F /  -13 °C 1032.7 in /  34967.2 hPa SE 4.8 mph /  7.7 km/h 14.5 mph /  23.3 km/h 60 % 0.0 in /  0 mm
15:22 16.6 °F /  -8.6 °C 9.0 °F /  -12.8 °C 1032.7 in /  34967.2 hPa SW 8.0 mph /  12.9 km/h 14.5 mph /  23.3 km/h 61 % 0.0 in /  0 mm
15:32 16.8 °F /  -8.4 °C 8.5 °F /  -13.1 °C 1032.7 in /  34967.2 hPa SSW 3.2 mph /  5.1 km/h 14.5 mph /  23.3 km/h 58 % 0.0 in /  0 mm
15:42 16.9 °F /  -8.4 °C 8.6 °F /  -13 °C 1032.7 in /  34967.2 hPa SSE 3.2 mph /  5.1 km/h 11.3 mph /  18.2 km/h 58 % 0.0 in /  0 mm
15:47 17.0 °F /  -8.3 °C 9.4 °F /  -12.6 °C 1032.7 in /  34967.2 hPa SSW 4.8 mph /  7.7 km/h 9.7 mph /  15.6 km/h 61 % 0.0 in /  0 mm
15:52 17.1 °F /  -8.3 °C 8.8 °F /  -12.9 °C 1032.7 in /  34967.2 hPa SSW 11.3 mph /  18.2 km/h 11.3 mph /  18.2 km/h 58 % 0.0 in /  0 mm
15:57 17.1 °F /  -8.3 °C 8.5 °F /  -13.1 °C 1032.7 in /  34967.2 hPa SW 4.8 mph /  7.7 km/h 11.3 mph /  18.2 km/h 57 % 0.0 in /  0 mm
16:02 17.1 °F /  -8.3 °C 8.5 °F /  -13.1 °C 1032.7 in /  34967.2 hPa SW 6.4 mph /  10.3 km/h 11.3 mph /  18.2 km/h 57 % 0.0 in /  0 mm
16:07 17.2 °F /  -8.2 °C 8.9 °F /  -12.8 °C 1032.4 in /  34957.1 hPa SSW 4.8 mph /  7.7 km/h 11.3 mph /  18.2 km/h 58 % 0.0 in /  0 mm
16:12 17.0 °F /  -8.3 °C 7.9 °F /  -13.4 °C 1032.4 in /  34957.1 hPa SE 6.4 mph /  10.3 km/h 11.3 mph /  18.2 km/h 55 % 0.0 in /  0 mm
16:17 16.9 °F /  -8.4 °C 8.8 °F /  -12.9 °C 1032.7 in /  34967.2 hPa South 3.2 mph /  5.1 km/h 12.9 mph /  20.8 km/h 59 % 0.0 in /  0 mm
16:22 17.1 °F /  -8.3 °C 8.3 °F /  -13.2 °C 1032.7 in /  34967.2 hPa SE 1.6 mph /  2.6 km/h 12.9 mph /  20.8 km/h 56 % 0.0 in /  0 mm
16:27 17.2 °F /  -8.2 °C 8.9 °F /  -12.8 °C 1032.4 in /  34957.1 hPa South 4.8 mph /  7.7 km/h 9.7 mph /  15.6 km/h 58 % 0.0 in /  0 mm
16:37 17.3 °F /  -8.2 °C 8.2 °F /  -13.2 °C 1032.4 in /  34957.1 hPa SE 6.4 mph /  10.3 km/h 11.3 mph /  18.2 km/h 55 % 0.0 in /  0 mm
16:42 17.3 °F /  -8.2 °C 8.2 °F /  -13.2 °C 1032.4 in /  34957.1 hPa South 3.2 mph /  5.1 km/h 11.3 mph /  18.2 km/h 55 % 0.0 in /  0 mm
16:47 17.4 °F /  -8.1 °C 8.0 °F /  -13.3 °C 1032.4 in /  34957.1 hPa SSE 1.6 mph /  2.6 km/h 11.3 mph /  18.2 km/h 54 % 0.0 in /  0 mm
16:52 17.3 °F /  -8.2 °C 8.4 °F /  -13.1 °C 1032.4 in /  34957.1 hPa South 4.8 mph /  7.7 km/h 6.4 mph /  10.3 km/h 56 % 0.0 in /  0 mm
16:57 17.2 °F /  -8.2 °C 8.6 °F /  -13 °C 1032.4 in /  34957.1 hPa SSE 3.2 mph /  5.1 km/h 8.0 mph /  12.9 km/h 57 % 0.0 in /  0 mm
17:02 17.1 °F /  -8.3 °C 8.5 °F /  -13.1 °C 1032.4 in /  34957.1 hPa SSE 3.2 mph /  5.1 km/h 8.0 mph /  12.9 km/h 57 % 0.0 in /  0 mm
17:12 17.1 °F /  -8.3 °C 8.0 °F /  -13.3 °C 1032.4 in /  34957.1 hPa SE 1.6 mph /  2.6 km/h 8.0 mph /  12.9 km/h 55 % 0.0 in /  0 mm
17:17 17.1 °F /  -8.3 °C 8.3 °F /  -13.2 °C 1032.4 in /  34957.1 hPa SE 1.6 mph /  2.6 km/h 8.0 mph /  12.9 km/h 56 % 0.0 in /  0 mm
17:22 17.2 °F /  -8.2 °C 7.5 °F /  -13.6 °C 1032.4 in /  34957.1 hPa SSE 1.6 mph /  2.6 km/h 8.0 mph /  12.9 km/h 53 % 0.0 in /  0 mm
17:32 17.0 °F /  -8.3 °C 8.2 °F /  -13.2 °C 1032.4 in /  34957.1 hPa SW 1.6 mph /  2.6 km/h 4.8 mph /  7.7 km/h 56 % 0.0 in /  0 mm
17:42 16.3 °F /  -8.7 °C 8.0 °F /  -13.3 °C 1032.4 in /  34957.1 hPa SSE 1.6 mph /  2.6 km/h 3.2 mph /  5.1 km/h 58 % 0.0 in /  0 mm
17:47 15.8 °F /  -9 °C 7.8 °F /  -13.4 °C 1032.4 in /  34957.1 hPa Calm   3.2 mph /  5.1 km/h 59 % 0.0 in /  0 mm
17:52 15.5 °F /  -9.2 °C 7.8 °F /  -13.4 °C 1032.4 in /  34957.1 hPa Calm   3.2 mph /  5.1 km/h 60 % 0.0 in /  0 mm
17:57 15.3 °F /  -9.3 °C 7.8 °F /  -13.4 °C 1032.4 in /  34957.1 hPa Calm   1.6 mph /  2.6 km/h 61 % 0.0 in /  0 mm
18:02 15.1 °F /  -9.4 °C 7.6 °F /  -13.6 °C 1032.4 in /  34957.1 hPa Calm   1.6 mph /  2.6 km/h 61 % 0.0 in /  0 mm
18:12 14.5 °F /  -9.7 °C 7.3 °F /  -13.7 °C 1032.4 in /  34957.1 hPa Calm     62 % 0.0 in /  0 mm
18:17 14.2 °F /  -9.9 °C 7.5 °F /  -13.6 °C 1032.4 in /  34957.1 hPa Calm     64 % 0.0 in /  0 mm
18:22 14.0 °F /  -10 °C 7.5 °F /  -13.6 °C 1032.7 in /  34967.2 hPa Calm     65 % 0.0 in /  0 mm
18:32 13.5 °F /  -10.3 °C 7.0 °F /  -13.9 °C 1032.7 in /  34967.2 hPa Calm     65 % 0.0 in /  0 mm
18:42 12.9 °F /  -10.6 °C 6.9 °F /  -13.9 °C 1032.7 in /  34967.2 hPa Calm     67 % 0.0 in /  0 mm
18:47 12.8 °F /  -10.7 °C 7.0 °F /  -13.9 °C 1032.7 in /  34967.2 hPa Calm     68 % 0.0 in /  0 mm
18:52 12.6 °F /  -10.8 °C 7.1 °F /  -13.8 °C 1032.7 in /  34967.2 hPa Calm     69 % 0.0 in /  0 mm
19:02 12.4 °F /  -10.9 °C 7.1 °F /  -13.8 °C 1033.1 in /  34980.8 hPa Calm   1.6 mph /  2.6 km/h 70 % 0.0 in /  0 mm
19:12 11.9 °F /  -11.2 °C 6.8 °F /  -14 °C 1033.1 in /  34980.8 hPa WNW 1.6 mph /  2.6 km/h 3.2 mph /  5.1 km/h 71 % 0.0 in /  0 mm
19:17 12.2 °F /  -11 °C 6.9 °F /  -13.9 °C 1033.1 in /  34980.8 hPa WNW 1.6 mph /  2.6 km/h 3.2 mph /  5.1 km/h 70 % 0.0 in /  0 mm
19:32 12.1 °F /  -11.1 °C 7.0 °F /  -13.9 °C 1033.1 in /  34980.8 hPa Calm   3.2 mph /  5.1 km/h 71 % 0.0 in /  0 mm
19:42 12.1 °F /  -11.1 °C 7.0 °F /  -13.9 °C 1033.1 in /  34980.8 hPa NNE 1.6 mph /  2.6 km/h 3.2 mph /  5.1 km/h 71 % 0.0 in /  0 mm
19:47 12.0 °F /  -11.1 °C 6.9 °F /  -13.9 °C 1033.1 in /  34980.8 hPa NNE 1.6 mph /  2.6 km/h 1.6 mph /  2.6 km/h 71 % 0.0 in /  0 mm
19:52 11.7 °F /  -11.3 °C 6.8 °F /  -14 °C 1033.1 in /  34980.8 hPa Calm   1.6 mph /  2.6 km/h 72 % 0.0 in /  0 mm
19:57 11.2 °F /  -11.6 °C 6.7 °F /  -14.1 °C 1033.1 in /  34980.8 hPa Calm   1.6 mph /  2.6 km/h 74 % 0.0 in /  0 mm
20:02 11.1 °F /  -11.6 °C 6.8 °F /  -14 °C 1033.1 in /  34980.8 hPa Calm   1.6 mph /  2.6 km/h 75 % 0.0 in /  0 mm
20:07 11.1 °F /  -11.6 °C 6.6 °F /  -14.1 °C 1033.1 in /  34980.8 hPa Calm   1.6 mph /  2.6 km/h 74 % 0.0 in /  0 mm
20:12 10.9 °F /  -11.7 °C 6.4 °F /  -14.2 °C 1033.1 in /  34980.8 hPa NW 1.6 mph /  2.6 km/h 1.6 mph /  2.6 km/h 74 % 0.0 in /  0 mm
20:22 10.8 °F /  -11.8 °C 6.7 °F /  -14.1 °C 1033.1 in /  34980.8 hPa NW 1.6 mph /  2.6 km/h 1.6 mph /  2.6 km/h 76 % 0.0 in /  0 mm
20:32 11.1 °F /  -11.6 °C 6.8 °F /  -14 °C 1033.1 in /  34980.8 hPa Calm   1.6 mph /  2.6 km/h 75 % 0.0 in /  0 mm
20:42 10.4 °F /  -12 °C 6.4 °F /  -14.2 °C 1033.1 in /  34980.8 hPa NW 1.6 mph /  2.6 km/h 1.6 mph /  2.6 km/h 76 % 0.0 in /  0 mm
20:52 10.3 °F /  -12.1 °C 6.6 °F /  -14.1 °C 1033.1 in /  34980.8 hPa Calm   1.6 mph /  2.6 km/h 78 % 0.0 in /  0 mm
20:57 10.3 °F /  -12.1 °C 6.6 °F /  -14.1 °C 1033.1 in /  34980.8 hPa Calm   1.6 mph /  2.6 km/h 78 % 0.0 in /  0 mm
21:02 10.2 °F /  -12.1 °C 6.5 °F /  -14.2 °C 1033.1 in /  34980.8 hPa North 1.6 mph /  2.6 km/h 1.6 mph /  2.6 km/h 78 % 0.0 in /  0 mm
21:12 9.7 °F /  -12.4 °C 6.4 °F /  -14.2 °C 1033.4 in /  34990.9 hPa NW 1.6 mph /  2.6 km/h 1.6 mph /  2.6 km/h 80 % 0.0 in /  0 mm
21:17 9.7 °F /  -12.4 °C 6.4 °F /  -14.2 °C 1033.4 in /  34990.9 hPa NW 1.6 mph /  2.6 km/h 3.2 mph /  5.1 km/h 80 % 0.0 in /  0 mm
21:22 10.1 °F /  -12.2 °C 6.6 °F /  -14.1 °C 1033.4 in /  34990.9 hPa NNW 4.8 mph /  7.7 km/h 4.8 mph /  7.7 km/h 79 % 0.0 in /  0 mm
21:27 10.1 °F /  -12.2 °C 6.4 °F /  -14.2 °C 1033.4 in /  34990.9 hPa North 1.6 mph /  2.6 km/h 4.8 mph /  7.7 km/h 78 % 0.0 in /  0 mm
21:37 10.1 °F /  -12.2 °C 6.6 °F /  -14.1 °C 1033.4 in /  34990.9 hPa Calm   4.8 mph /  7.7 km/h 79 % 0.0 in /  0 mm
21:42 9.8 °F /  -12.3 °C 6.3 °F /  -14.3 °C 1033.4 in /  34990.9 hPa Calm   4.8 mph /  7.7 km/h 79 % 0.0 in /  0 mm
21:52 9.6 °F /  -12.4 °C 6.5 °F /  -14.2 °C 1033.4 in /  34990.9 hPa Calm   1.6 mph /  2.6 km/h 81 % 0.0 in /  0 mm
22:02 9.1 °F /  -12.7 °C 6.2 °F /  -14.3 °C 1033.4 in /  34990.9 hPa WNW 1.6 mph /  2.6 km/h 1.6 mph /  2.6 km/h 82 % 0.0 in /  0 mm
22:12 9.0 °F /  -12.8 °C 6.1 °F /  -14.4 °C 1033.4 in /  34990.9 hPa WNW 1.6 mph /  2.6 km/h 3.2 mph /  5.1 km/h 82 % 0.0 in /  0 mm
22:17 8.6 °F /  -13 °C 6.0 °F /  -14.4 °C 1033.4 in /  34990.9 hPa Calm   3.2 mph /  5.1 km/h 84 % 0.0 in /  0 mm
22:22 8.6 °F /  -13 °C 6.2 °F /  -14.3 °C 1033.4 in /  34990.9 hPa Calm   1.6 mph /  2.6 km/h 85 % 0.0 in /  0 mm
22:32 8.8 °F /  -12.9 °C 6.2 °F /  -14.3 °C 1033.4 in /  34990.9 hPa North 1.6 mph /  2.6 km/h 1.6 mph /  2.6 km/h 84 % 0.0 in /  0 mm
22:37 8.7 °F /  -12.9 °C 6.1 °F /  -14.4 °C 1033.4 in /  34990.9 hPa North 1.6 mph /  2.6 km/h 3.2 mph /  5.1 km/h 84 % 0.0 in /  0 mm
22:42 8.7 °F /  -12.9 °C 6.1 °F /  -14.4 °C 1033.4 in /  34990.9 hPa Calm   3.2 mph /  5.1 km/h 84 % 0.0 in /  0 mm
22:47 8.8 °F /  -12.9 °C 6.2 °F /  -14.3 °C 1033.4 in /  34990.9 hPa Calm   3.2 mph /  5.1 km/h 84 % 0.0 in /  0 mm
22:52 8.5 °F /  -13.1 °C 5.8 °F /  -14.6 °C 1033.4 in /  34990.9 hPa Calm   3.2 mph /  5.1 km/h 83 % 0.0 in /  0 mm
23:02 8.2 °F /  -13.2 °C 5.7 °F /  -14.6 °C 1033.4 in /  34990.9 hPa Calm   1.6 mph /  2.6 km/h 84 % 0.0 in /  0 mm
23:12 7.9 °F /  -13.4 °C 5.7 °F /  -14.6 °C 1033.4 in /  34990.9 hPa Calm   1.6 mph /  2.6 km/h 86 % 0.0 in /  0 mm
23:22 7.6 °F /  -13.6 °C 5.4 °F /  -14.8 °C 1033.4 in /  34990.9 hPa WNW 1.6 mph /  2.6 km/h 1.6 mph /  2.6 km/h 86 % 0.0 in /  0 mm
23:32 7.6 °F /  -13.6 °C 5.9 °F /  -14.5 °C 1033.4 in /  34990.9 hPa Calm   3.2 mph /  5.1 km/h 89 % 0.0 in /  0 mm
23:37 7.7 °F /  -13.5 °C 6.0 °F /  -14.4 °C 1033.4 in /  34990.9 hPa Calm   3.2 mph /  5.1 km/h 89 % 0.0 in /  0 mm
23:42 7.7 °F /  -13.5 °C 5.8 °F /  -14.6 °C 1033.4 in /  34990.9 hPa Calm   3.2 mph /  5.1 km/h 88 % 0.0 in /  0 mm
23:47 7.7 °F /  -13.5 °C 6.0 °F /  -14.4 °C 1033.4 in /  34990.9 hPa Calm   1.6 mph /  2.6 km/h 89 % 0.0 in /  0 mm
23:52 7.6 °F /  -13.6 °C 5.9 °F /  -14.5 °C 1033.4 in /  34990.9 hPa WNW 1.6 mph /  2.6 km/h 1.6 mph /  2.6 km/h 89 % 0.0 in /  0 mm
Meteo18
Compliments of Weather Underground - 4 mb

Script developed by  Jim McMurry - jmcmurry@mwt.net Adapted for the template by  Wim van der Kuil - Leuven-Template.eu

You find our weather info also at:

European Weather Network

Weather Underground

Equipment we use:

Weather-station
Davis Vue

Weather-program
Meteobridge

Weather-server
Raspberry PI 2 B+

Provider
1 and 1

Davis Vue

Meteobridge

Raspberry PI 2 B+

1 and 1